Bloomington (BMI/KBMI)

Map

Information

Location
Bloomington, IL
KBMI -
Bad Timezone: GMT-6
Local Time
GMT Time
00:19 / 12:19 am
Gates
Unassigned
No FAA reported delays
METAR KBMI 222356Z 08010KT 10SM CLR 02/M07 A3044 RMK AO2 SLP336 T00221067 10050 20022 56009
TAF KBMI 222338Z 2300/2324 09008KT P6SM SCT250 FM230600 12008KT P6SM BKN200 FM231400 14012KT P6SM BKN120 FM232100 16014G22KT P6SM OVC050
  • No charts available